sensor_id;sensor_type;location;lat;lon;timestamp;pressure;altitude;pressure_sealevel;temperature;humidity
3206;BME280;1615;53.602;11.418;2023-04-26T00:02:21;100736.72;;;4.99;100.00
3206;BME280;1615;53.602;11.418;2023-04-26T00:04:50;100924.53;;;6.13;100.00
3206;BME280;1615;53.602;11.418;2023-04-26T00:07:15;100913.88;;;6.07;100.00
3206;BME280;1615;53.602;11.418;2023-04-26T00:09:41;100922.31;;;6.05;100.00
3206;BME280;1615;53.602;11.418;2023-04-26T00:12:08;100924.75;;;6.07;100.00
3206;BME280;1615;53.602;11.418;2023-04-26T00:14:35;100925.00;;;6.00;100.00
3206;BME280;1615;53.602;11.418;2023-04-26T00:17:01;100924.16;;;6.00;100.00
3206;BME280;1615;53.602;11.418;2023-04-26T00:19:28;100791.75;;;5.16;100.00
3206;BME280;1615;53.602;11.418;2023-04-26T00:21:53;100927.97;;;5.99;100.00
3206;BME280;1615;53.602;11.418;2023-04-26T00:24:19;100933.13;;;5.95;100.00
3206;BME280;1615;53.602;11.418;2023-04-26T00:26:44;100921.69;;;5.98;100.00
3206;BME280;1615;53.602;11.418;2023-04-26T00:29:09;100935.03;;;6.00;100.00
3206;BME280;1615;53.602;11.418;2023-04-26T00:31:35;100931.78;;;5.98;100.00
3206;BME280;1615;53.602;11.418;2023-04-26T00:34:00;100937.22;;;5.98;100.00
3206;BME280;1615;53.602;11.418;2023-04-26T00:36:25;100942.13;;;6.01;100.00
3206;BME280;1615;53.602;11.418;2023-04-26T00:38:51;100936.13;;;5.99;100.00
3206;BME280;1615;53.602;11.418;2023-04-26T00:41:17;100942.66;;;5.98;100.00
3206;BME280;1615;53.602;11.418;2023-04-26T00:43:42;100936.09;;;5.94;100.00
3206;BME280;1615;53.602;11.418;2023-04-26T00:46:08;100932.81;;;5.92;100.00
3206;BME280;1615;53.602;11.418;2023-04-26T00:48:36;100937.69;;;5.90;100.00
3206;BME280;1615;53.602;11.418;2023-04-26T00:51:01;100938.22;;;5.87;100.00
3206;BME280;1615;53.602;11.418;2023-04-26T00:53:27;100846.09;;;4.89;100.00
3206;BME280;1615;53.602;11.418;2023-04-26T00:55:54;100898.13;;;5.51;100.00
3206;BME280;1615;53.602;11.418;2023-04-26T00:58:20;100947.97;;;5.83;100.00
3206;BME280;1615;53.602;11.418;2023-04-26T01:00:45;100947.38;;;5.81;100.00
3206;BME280;1615;53.602;11.418;2023-04-26T01:03:11;100957.13;;;5.77;100.00
3206;BME280;1615;53.602;11.418;2023-04-26T01:05:37;100868.53;;;5.28;100.00
3206;BME280;1615;53.602;11.418;2023-04-26T01:08:02;100933.09;;;5.69;100.00
3206;BME280;1615;53.602;11.418;2023-04-26T01:10:32;100816.59;;;4.98;100.00
3206;BME280;1615;53.602;11.418;2023-04-26T01:12:58;100954.94;;;5.79;100.00
3206;BME280;1615;53.602;11.418;2023-04-26T01:15:25;100947.13;;;5.82;100.00
3206;BME280;1615;53.602;11.418;2023-04-26T01:17:52;101048.09;;;5.86;100.00
3206;BME280;1615;53.602;11.418;2023-04-26T01:20:17;100842.31;;;5.17;100.00
3206;BME280;1615;53.602;11.418;2023-04-26T01:22:43;100950.78;;;5.93;100.00
3206;BME280;1615;53.602;11.418;2023-04-26T01:25:10;100935.06;;;5.73;100.00
3206;BME280;1615;53.602;11.418;2023-04-26T01:27:36;100773.31;;;4.65;100.00
3206;BME280;1615;53.602;11.418;2023-04-26T01:30:01;100960.09;;;5.75;100.00
3206;BME280;1615;53.602;11.418;2023-04-26T01:32:27;100959.78;;;5.72;100.00
3206;BME280;1615;53.602;11.418;2023-04-26T01:34:52;100952.38;;;5.67;100.00
3206;BME280;1615;53.602;11.418;2023-04-26T01:37:18;100958.59;;;5.63;100.00
3206;BME280;1615;53.602;11.418;2023-04-26T01:39:43;100959.06;;;5.55;100.00
3206;BME280;1615;53.602;11.418;2023-04-26T01:42:08;100956.91;;;5.57;100.00
3206;BME280;1615;53.602;11.418;2023-04-26T01:44:34;100919.09;;;5.29;100.00
3206;BME280;1615;53.602;11.418;2023-04-26T01:46:59;100959.81;;;5.50;100.00
3206;BME280;1615;53.602;11.418;2023-04-26T01:49:24;100983.97;;;5.47;100.00
3206;BME280;1615;53.602;11.418;2023-04-26T01:51:50;100954.06;;;5.47;100.00
3206;BME280;1615;53.602;11.418;2023-04-26T01:54:15;100965.50;;;5.49;100.00
3206;BME280;1615;53.602;11.418;2023-04-26T01:56:40;100953.00;;;5.48;100.00
3206;BME280;1615;53.602;11.418;2023-04-26T01:59:06;100957.88;;;5.46;100.00
3206;BME280;1615;53.602;11.418;2023-04-26T02:01:31;100962.44;;;5.19;100.00
3206;BME280;1615;53.602;11.418;2023-04-26T02:03:57;100822.75;;;4.45;100.00
3206;BME280;1615;53.602;11.418;2023-04-26T02:06:22;100978.13;;;5.33;100.00
3206;BME280;1615;53.602;11.418;2023-04-26T02:08:47;100972.38;;;5.30;100.00
3206;BME280;1615;53.602;11.418;2023-04-26T02:11:13;100971.53;;;5.29;100.00
3206;BME280;1615;53.602;11.418;2023-04-26T02:13:38;100970.13;;;5.27;100.00
3206;BME280;1615;53.602;11.418;2023-04-26T02:16:04;100963.13;;;5.31;100.00
3206;BME280;1615;53.602;11.418;2023-04-26T02:18:29;100965.06;;;5.35;100.00
3206;BME280;1615;53.602;11.418;2023-04-26T02:20:54;100964.81;;;5.37;100.00
3206;BME280;1615;53.602;11.418;2023-04-26T02:23:20;100963.75;;;5.38;100.00
3206;BME280;1615;53.602;11.418;2023-04-26T02:25:47;100792.69;;;4.30;100.00
3206;BME280;1615;53.602;11.418;2023-04-26T02:28:12;100828.50;;;4.49;100.00
3206;BME280;1615;53.602;11.418;2023-04-26T02:30:38;100913.34;;;5.04;100.00
3206;BME280;1615;53.602;11.418;2023-04-26T02:33:03;100973.22;;;5.35;100.00
3206;BME280;1615;53.602;11.418;2023-04-26T02:35:29;100971.34;;;5.36;100.00
3206;BME280;1615;53.602;11.418;2023-04-26T02:37:54;100971.91;;;5.38;100.00
3206;BME280;1615;53.602;11.418;2023-04-26T02:40:20;100870.97;;;4.81;100.00
3206;BME280;1615;53.602;11.418;2023-04-26T02:42:45;100973.75;;;5.32;100.00
3206;BME280;1615;53.602;11.418;2023-04-26T02:45:11;100970.91;;;5.22;100.00
3206;BME280;1615;53.602;11.418;2023-04-26T02:47:36;100972.25;;;5.20;100.00
3206;BME280;1615;53.602;11.418;2023-04-26T02:50:06;100973.16;;;5.30;100.00
3206;BME280;1615;53.602;11.418;2023-04-26T02:52:33;100979.44;;;5.31;100.00
3206;BME280;1615;53.602;11.418;2023-04-26T02:54:58;100981.47;;;5.19;100.00
3206;BME280;1615;53.602;11.418;2023-04-26T02:57:25;100986.47;;;5.05;100.00
3206;BME280;1615;53.602;11.418;2023-04-26T02:59:50;100977.06;;;5.13;100.00
3206;BME280;1615;53.602;11.418;2023-04-26T03:02:16;100973.25;;;5.14;100.00
3206;BME280;1615;53.602;11.418;2023-04-26T03:04:41;100956.19;;;4.97;100.00
3206;BME280;1615;53.602;11.418;2023-04-26T03:07:06;100980.50;;;5.08;100.00
3206;BME280;1615;53.602;11.418;2023-04-26T03:09:32;100970.97;;;5.06;100.00
3206;BME280;1615;53.602;11.418;2023-04-26T03:11:58;100974.19;;;5.03;100.00
3206;BME280;1615;53.602;11.418;2023-04-26T03:14:24;100975.28;;;5.02;100.00
3206;BME280;1615;53.602;11.418;2023-04-26T03:16:49;100982.03;;;4.99;100.00
3206;BME280;1615;53.602;11.418;2023-04-26T03:19:15;100973.59;;;5.01;100.00
3206;BME280;1615;53.602;11.418;2023-04-26T03:21:40;100976.09;;;5.02;100.00
3206;BME280;1615;53.602;11.418;2023-04-26T03:24:05;100980.72;;;5.02;100.00
3206;BME280;1615;53.602;11.418;2023-04-26T03:26:31;100869.00;;;4.34;100.00
3206;BME280;1615;53.602;11.418;2023-04-26T03:28:57;100974.44;;;5.01;100.00
3206;BME280;1615;53.602;11.418;2023-04-26T03:31:22;100920.72;;;4.65;100.00
3206;BME280;1615;53.602;11.418;2023-04-26T03:33:48;100972.50;;;4.97;100.00
3206;BME280;1615;53.602;11.418;2023-04-26T03:36:13;100970.84;;;4.96;100.00
3206;BME280;1615;53.602;11.418;2023-04-26T03:38:38;100976.28;;;4.96;100.00
3206;BME280;1615;53.602;11.418;2023-04-26T03:41:04;100974.63;;;4.95;100.00
3206;BME280;1615;53.602;11.418;2023-04-26T03:43:29;100977.94;;;4.97;100.00
3206;BME280;1615;53.602;11.418;2023-04-26T03:45:54;100983.34;;;4.97;100.00
3206;BME280;1615;53.602;11.418;2023-04-26T03:48:20;100926.47;;;4.69;100.00
3206;BME280;1615;53.602;11.418;2023-04-26T03:50:45;100854.72;;;4.22;100.00
3206;BME280;1615;53.602;11.418;2023-04-26T03:53:11;100988.84;;;5.02;100.00
3206;BME280;1615;53.602;11.418;2023-04-26T03:55:36;100808.78;;;3.99;100.00
3206;BME280;1615;53.602;11.418;2023-04-26T03:58:01;100984.47;;;5.01;100.00
3206;BME280;1615;53.602;11.418;2023-04-26T04:00:32;100989.59;;;4.97;100.00
3206;BME280;1615;53.602;11.418;2023-04-26T04:02:58;100987.16;;;4.96;100.00
3206;BME280;1615;53.602;11.418;2023-04-26T04:05:23;100989.81;;;4.91;100.00
3206;BME280;1615;53.602;11.418;2023-04-26T04:07:48;100998.03;;;4.96;100.00
3206;BME280;1615;53.602;11.418;2023-04-26T04:10:14;100993.72;;;5.00;100.00
3206;BME280;1615;53.602;11.418;2023-04-26T04:12:43;100996.50;;;5.05;100.00
3206;BME280;1615;53.602;11.418;2023-04-26T04:15:09;100993.28;;;5.08;100.00
3206;BME280;1615;53.602;11.418;2023-04-26T04:17:34;100996.06;;;5.13;100.00
3206;BME280;1615;53.602;11.418;2023-04-26T04:20:01;100905.03;;;4.51;100.00
3206;BME280;1615;53.602;11.418;2023-04-26T04:22:28;101000.19;;;5.15;100.00
3206;BME280;1615;53.602;11.418;2023-04-26T04:24:54;101007.81;;;5.18;100.00
3206;BME280;1615;53.602;11.418;2023-04-26T04:27:19;100996.69;;;5.20;100.00
3206;BME280;1615;53.602;11.418;2023-04-26T04:29:45;100988.41;;;5.10;100.00
3206;BME280;1615;53.602;11.418;2023-04-26T04:32:11;101009.28;;;5.26;100.00
3206;BME280;1615;53.602;11.418;2023-04-26T04:34:37;101006.31;;;5.27;100.00
3206;BME280;1615;53.602;11.418;2023-04-26T04:37:03;101012.38;;;5.34;100.00
3206;BME280;1615;53.602;11.418;2023-04-26T04:39:29;101014.00;;;5.35;100.00
3206;BME280;1615;53.602;11.418;2023-04-26T04:41:55;101012.19;;;5.41;100.00
3206;BME280;1615;53.602;11.418;2023-04-26T04:44:20;101016.09;;;5.50;100.00
3206;BME280;1615;53.602;11.418;2023-04-26T04:46:48;101022.66;;;5.54;100.00
3206;BME280;1615;53.602;11.418;2023-04-26T04:49:13;100909.94;;;4.92;100.00
3206;BME280;1615;53.602;11.418;2023-04-26T04:51:39;100909.44;;;4.95;100.00
3206;BME280;1615;53.602;11.418;2023-04-26T04:54:11;101021.25;;;5.73;100.00
3206;BME280;1615;53.602;11.418;2023-04-26T04:56:37;100983.00;;;5.58;100.00
3206;BME280;1615;53.602;11.418;2023-04-26T04:59:02;100883.94;;;4.96;100.00
3206;BME280;1615;53.602;11.418;2023-04-26T05:01:30;100924.91;;;5.16;100.00
3206;BME280;1615;53.602;11.418;2023-04-26T05:03:56;101020.44;;;5.94;100.00
3206;BME280;1615;53.602;11.418;2023-04-26T05:06:22;101022.69;;;6.02;100.00
3206;BME280;1615;53.602;11.418;2023-04-26T05:08:47;101024.84;;;6.00;100.00
3206;BME280;1615;53.602;11.418;2023-04-26T05:11:12;101027.56;;;6.00;100.00
3206;BME280;1615;53.602;11.418;2023-04-26T05:13:37;100927.91;;;5.41;100.00
3206;BME280;1615;53.602;11.418;2023-04-26T05:16:03;101029.84;;;6.08;100.00
3206;BME280;1615;53.602;11.418;2023-04-26T05:18:28;101028.41;;;6.32;100.00
3206;BME280;1615;53.602;11.418;2023-04-26T05:20:53;101020.34;;;6.42;100.00
3206;BME280;1615;53.602;11.418;2023-04-26T05:23:19;101037.81;;;6.46;100.00
3206;BME280;1615;53.602;11.418;2023-04-26T05:25:44;101032.44;;;6.56;100.00
3206;BME280;1615;53.602;11.418;2023-04-26T05:28:09;101034.16;;;6.67;100.00
3206;BME280;1615;53.602;11.418;2023-04-26T05:30:37;100962.00;;;6.33;100.00
3206;BME280;1615;53.602;11.418;2023-04-26T05:33:02;101037.63;;;6.94;100.00
3206;BME280;1615;53.602;11.418;2023-04-26T05:35:28;101034.66;;;7.00;100.00
3206;BME280;1615;53.602;11.418;2023-04-26T05:37:53;101032.84;;;7.16;100.00
3206;BME280;1615;53.602;11.418;2023-04-26T05:40:18;101036.50;;;7.41;100.00
3206;BME280;1615;53.602;11.418;2023-04-26T05:42:44;101005.09;;;7.29;100.00
3206;BME280;1615;53.602;11.418;2023-04-26T05:45:09;101033.88;;;7.61;100.00
3206;BME280;1615;53.602;11.418;2023-04-26T05:47:35;101014.50;;;7.58;100.00
3206;BME280;1615;53.602;11.418;2023-04-26T05:50:01;101043.81;;;7.26;100.00
3206;BME280;1615;53.602;11.418;2023-04-26T05:52:26;101038.84;;;7.79;100.00
3206;BME280;1615;53.602;11.418;2023-04-26T05:54:52;101030.38;;;7.81;100.00
3206;BME280;1615;53.602;11.418;2023-04-26T05:57:17;101032.84;;;7.82;100.00
3206;BME280;1615;53.602;11.418;2023-04-26T05:59:43;101036.97;;;7.90;100.00
3206;BME280;1615;53.602;11.418;2023-04-26T06:02:08;101036.97;;;8.05;100.00
3206;BME280;1615;53.602;11.418;2023-04-26T06:04:34;101032.38;;;8.10;100.00
3206;BME280;1615;53.602;11.418;2023-04-26T06:06:59;101032.13;;;8.17;100.00
3206;BME280;1615;53.602;11.418;2023-04-26T06:09:25;101044.44;;;8.44;100.00
3206;BME280;1615;53.602;11.418;2023-04-26T06:11:51;101045.81;;;8.57;100.00
3206;BME280;1615;53.602;11.418;2023-04-26T06:14:16;101045.28;;;8.65;100.00
3206;BME280;1615;53.602;11.418;2023-04-26T06:16:41;101043.66;;;8.64;100.00
3206;BME280;1615;53.602;11.418;2023-04-26T06:19:07;101042.25;;;8.71;100.00
3206;BME280;1615;53.602;11.418;2023-04-26T06:21:32;101039.53;;;8.66;100.00
3206;BME280;1615;53.602;11.418;2023-04-26T06:23:57;101040.63;;;8.60;100.00
3206;BME280;1615;53.602;11.418;2023-04-26T06:26:23;101048.56;;;8.62;100.00
3206;BME280;1615;53.602;11.418;2023-04-26T06:28:48;101042.56;;;8.65;100.00
3206;BME280;1615;53.602;11.418;2023-04-26T06:31:14;101045.81;;;8.67;100.00
3206;BME280;1615;53.602;11.418;2023-04-26T06:33:39;101046.91;;;8.76;100.00
3206;BME280;1615;53.602;11.418;2023-04-26T06:36:04;101043.34;;;8.85;100.00
3206;BME280;1615;53.602;11.418;2023-04-26T06:38:30;101038.66;;;9.01;100.00
3206;BME280;1615;53.602;11.418;2023-04-26T06:40:55;101023.44;;;8.70;100.00
3206;BME280;1615;53.602;11.418;2023-04-26T06:43:21;101046.34;;;8.69;100.00
3206;BME280;1615;53.602;11.418;2023-04-26T06:45:47;101045.81;;;8.82;100.00
3206;BME280;1615;53.602;11.418;2023-04-26T06:48:12;101031.88;;;8.78;100.00
3206;BME280;1615;53.602;11.418;2023-04-26T06:50:40;101058.38;;;8.98;100.00
3206;BME280;1615;53.602;11.418;2023-04-26T06:53:06;101057.81;;;9.01;100.00
3206;BME280;1615;53.602;11.418;2023-04-26T06:55:33;101046.34;;;9.04;100.00
3206;BME280;1615;53.602;11.418;2023-04-26T06:57:59;101049.59;;;9.11;100.00
3206;BME280;1615;53.602;11.418;2023-04-26T07:00:24;101049.59;;;9.11;100.00
3206;BME280;1615;53.602;11.418;2023-04-26T07:02:50;101045.75;;;9.17;100.00
3206;BME280;1615;53.602;11.418;2023-04-26T07:05:15;101046.31;;;9.14;100.00
3206;BME280;1615;53.602;11.418;2023-04-26T07:07:40;101048.47;;;9.17;100.00
3206;BME280;1615;53.602;11.418;2023-04-26T07:10:06;101046.56;;;9.22;100.00
3206;BME280;1615;53.602;11.418;2023-04-26T07:12:32;101024.94;;;9.21;100.00
3206;BME280;1615;53.602;11.418;2023-04-26T07:14:57;101052.25;;;9.41;100.00
3206;BME280;1615;53.602;11.418;2023-04-26T07:17:23;101042.91;;;9.52;100.00
3206;BME280;1615;53.602;11.418;2023-04-26T07:19:48;101054.38;;;9.59;100.00
3206;BME280;1615;53.602;11.418;2023-04-26T07:22:13;101021.06;;;9.42;100.00
3206;BME280;1615;53.602;11.418;2023-04-26T07:24:38;101014.44;;;9.53;100.00
3206;BME280;1615;53.602;11.418;2023-04-26T07:27:04;101048.84;;;9.69;100.00
3206;BME280;1615;53.602;11.418;2023-04-26T07:29:29;101041.25;;;9.56;100.00
3206;BME280;1615;53.602;11.418;2023-04-26T07:31:54;100679.50;;;7.50;100.00
3206;BME280;1615;53.602;11.418;2023-04-26T07:34:21;101053.13;;;9.95;100.00
3206;BME280;1615;53.602;11.418;2023-04-26T07:36:46;101053.84;;;10.15;100.00
3206;BME280;1615;53.602;11.418;2023-04-26T07:39:12;101046.03;;;10.37;100.00
3206;BME280;1615;53.602;11.418;2023-04-26T07:41:37;101014.63;;;10.25;100.00
3206;BME280;1615;53.602;11.418;2023-04-26T07:44:02;101053.38;;;10.47;100.00
3206;BME280;1615;53.602;11.418;2023-04-26T07:46:28;101054.28;;;10.37;100.00
3206;BME280;1615;53.602;11.418;2023-04-26T07:48:53;101054.63;;;10.26;100.00
3206;BME280;1615;53.602;11.418;2023-04-26T07:51:19;101058.94;;;10.32;100.00
3206;BME280;1615;53.602;11.418;2023-04-26T07:53:45;101049.47;;;10.53;100.00
3206;BME280;1615;53.602;11.418;2023-04-26T07:56:10;101055.38;;;10.70;100.00
3206;BME280;1615;53.602;11.418;2023-04-26T07:58:36;101051.94;;;10.88;100.00
3206;BME280;1615;53.602;11.418;2023-04-26T08:01:03;101048.31;;;10.92;100.00
3206;BME280;1615;53.602;11.418;2023-04-26T08:03:28;101046.78;;;10.81;100.00
3206;BME280;1615;53.602;11.418;2023-04-26T08:05:54;101048.63;;;11.14;100.00
3206;BME280;1615;53.602;11.418;2023-04-26T08:08:21;101048.16;;;11.36;100.00
3206;BME280;1615;53.602;11.418;2023-04-26T08:10:46;101065.53;;;11.26;100.00
3206;BME280;1615;53.602;11.418;2023-04-26T08:13:12;101063.16;;;11.20;100.00
3206;BME280;1615;53.602;11.418;2023-04-26T08:15:37;101078.75;;;11.48;100.00
3206;BME280;1615;53.602;11.418;2023-04-26T08:18:03;101077.97;;;11.42;100.00
3206;BME280;1615;53.602;11.418;2023-04-26T08:20:28;101059.00;;;11.46;100.00
3206;BME280;1615;53.602;11.418;2023-04-26T08:22:55;101063.16;;;11.67;100.00
3206;BME280;1615;53.602;11.418;2023-04-26T08:25:22;101038.53;;;11.57;100.00
3206;BME280;1615;53.602;11.418;2023-04-26T08:27:47;101064.63;;;11.59;97.72
3206;BME280;1615;53.602;11.418;2023-04-26T08:30:12;101065.78;;;11.53;98.16
3206;BME280;1615;53.602;11.418;2023-04-26T08:32:38;101071.50;;;11.57;97.57
3206;BME280;1615;53.602;11.418;2023-04-26T08:35:04;101065.50;;;11.78;97.05
3206;BME280;1615;53.602;11.418;2023-04-26T08:37:29;101033.41;;;11.03;93.38
3206;BME280;1615;53.602;11.418;2023-04-26T08:39:55;101075.34;;;11.56;96.54
3206;BME280;1615;53.602;11.418;2023-04-26T08:42:25;101026.03;;;11.46;99.11
3206;BME280;1615;53.602;11.418;2023-04-26T08:44:52;101082.34;;;11.72;95.49
3206;BME280;1615;53.602;11.418;2023-04-26T08:47:23;101083.00;;;11.64;94.64
3206;BME280;1615;53.602;11.418;2023-04-26T08:49:53;101094.31;;;11.81;94.59
3206;BME280;1615;53.602;11.418;2023-04-26T08:52:26;101102.63;;;11.76;93.07
3206;BME280;1615;53.602;11.418;2023-04-26T08:54:53;101088.06;;;11.75;93.97
3206;BME280;1615;53.602;11.418;2023-04-26T08:57:21;101078.56;;;11.68;89.20
3206;BME280;1615;53.602;11.418;2023-04-26T08:59:48;101143.81;;;11.76;88.75
3206;BME280;1615;53.602;11.418;2023-04-26T09:02:17;101073.84;;;11.92;88.63
3206;BME280;1615;53.602;11.418;2023-04-26T09:04:44;101076.53;;;11.97;83.89
3206;BME280;1615;53.602;11.418;2023-04-26T09:07:15;101077.97;;;12.13;80.97
3206;BME280;1615;53.602;11.418;2023-04-26T09:09:48;101063.22;;;12.04;86.55
3206;BME280;1615;53.602;11.418;2023-04-26T09:12:17;101076.75;;;12.00;82.10
3206;BME280;1615;53.602;11.418;2023-04-26T09:14:44;101076.22;;;11.80;81.82
3206;BME280;1615;53.602;11.418;2023-04-26T09:17:27;101076.88;;;11.90;82.85
3206;BME280;1615;53.602;11.418;2023-04-26T09:19:53;101080.13;;;12.16;86.15
3206;BME280;1615;53.602;11.418;2023-04-26T09:22:32;101079.38;;;12.29;78.98
3206;BME280;1615;53.602;11.418;2023-04-26T09:24:58;100994.94;;;11.97;82.38
3206;BME280;1615;53.602;11.418;2023-04-26T09:27:38;101014.22;;;11.92;76.07
3206;BME280;1615;53.602;11.418;2023-04-26T09:35:22;101077.28;;;12.58;67.94
3206;BME280;1615;53.602;11.418;2023-04-26T09:40:23;101086.56;;;12.80;75.44
3206;BME280;1615;53.602;11.418;2023-04-26T09:42:58;101079.75;;;12.91;68.73
3206;BME280;1615;53.602;11.418;2023-04-26T09:45:25;101048.50;;;12.50;66.30
3206;BME280;1615;53.602;11.418;2023-04-26T09:47:51;101092.50;;;12.50;69.85
3206;BME280;1615;53.602;11.418;2023-04-26T09:50:27;101073.13;;;12.42;67.53
3206;BME280;1615;53.602;11.418;2023-04-26T09:52:52;101024.56;;;12.19;65.14
3206;BME280;1615;53.602;11.418;2023-04-26T09:55:28;101063.28;;;12.73;69.61
3206;BME280;1615;53.602;11.418;2023-04-26T09:57:55;100907.25;;;11.82;72.94
3206;BME280;1615;53.602;11.418;2023-04-26T10:00:21;101076.22;;;12.91;75.23
3206;BME280;1615;53.602;11.418;2023-04-26T10:02:48;101094.84;;;13.12;73.98
3206;BME280;1615;53.602;11.418;2023-04-26T10:05:14;100933.25;;;12.54;69.64
3206;BME280;1615;53.602;11.418;2023-04-26T10:07:39;101042.06;;;13.24;66.71
3206;BME280;1615;53.602;11.418;2023-04-26T10:10:07;101020.19;;;13.00;63.67
3206;BME280;1615;53.602;11.418;2023-04-26T10:12:33;101031.13;;;13.19;66.40
3206;BME280;1615;53.602;11.418;2023-04-26T10:14:58;101075.31;;;13.41;64.91
3206;BME280;1615;53.602;11.418;2023-04-26T10:17:23;101071.03;;;13.35;69.87
3206;BME280;1615;53.602;11.418;2023-04-26T10:19:52;101061.63;;;13.36;70.67
3206;BME280;1615;53.602;11.418;2023-04-26T10:22:23;101065.94;;;13.42;72.78
3206;BME280;1615;53.602;11.418;2023-04-26T10:24:50;101064.50;;;13.31;70.49
3206;BME280;1615;53.602;11.418;2023-04-26T10:27:16;101059.88;;;13.13;70.66
3206;BME280;1615;53.602;11.418;2023-04-26T10:32:22;101072.53;;;13.14;65.71
3206;BME280;1615;53.602;11.418;2023-04-26T10:35:11;101064.34;;;13.09;68.72
3206;BME280;1615;53.602;11.418;2023-04-26T10:45:41;101080.72;;;12.50;79.35
3206;BME280;1615;53.602;11.418;2023-04-26T10:48:21;101084.72;;;12.39;84.37
3206;BME280;1615;53.602;11.418;2023-04-26T10:56:10;101089.47;;;12.52;91.20
3206;BME280;1615;53.602;11.418;2023-04-26T10:58:39;101090.22;;;12.76;91.12
3206;BME280;1615;53.602;11.418;2023-04-26T11:01:15;101088.22;;;12.95;88.75
3206;BME280;1615;53.602;11.418;2023-04-26T11:03:42;101080.53;;;12.97;84.20
3206;BME280;1615;53.602;11.418;2023-04-26T11:06:09;101090.56;;;12.88;82.90
3206;BME280;1615;53.602;11.418;2023-04-26T11:08:38;101093.19;;;12.61;85.69
3206;BME280;1615;53.602;11.418;2023-04-26T11:11:06;101100.75;;;11.95;97.18
3206;BME280;1615;53.602;11.418;2023-04-26T11:13:36;101125.88;;;11.60;100.00
3206;BME280;1615;53.602;11.418;2023-04-26T11:16:06;101125.72;;;11.18;100.00
3206;BME280;1615;53.602;11.418;2023-04-26T11:18:33;101133.09;;;10.50;100.00
3206;BME280;1615;53.602;11.418;2023-04-26T11:20:59;101239.97;;;9.57;100.00
3206;BME280;1615;53.602;11.418;2023-04-26T11:23:27;101060.56;;;9.89;100.00
3206;BME280;1615;53.602;11.418;2023-04-26T11:25:53;101141.13;;;10.37;100.00
3206;BME280;1615;53.602;11.418;2023-04-26T11:28:21;101131.53;;;10.39;100.00
3206;BME280;1615;53.602;11.418;2023-04-26T11:30:51;101118.03;;;10.48;100.00
3206;BME280;1615;53.602;11.418;2023-04-26T11:33:18;101108.34;;;10.65;100.00
3206;BME280;1615;53.602;11.418;2023-04-26T11:35:45;101111.13;;;10.94;100.00
3206;BME280;1615;53.602;11.418;2023-04-26T11:38:12;101108.63;;;11.26;100.00
3206;BME280;1615;53.602;11.418;2023-04-26T11:40:38;101097.97;;;11.48;100.00
3206;BME280;1615;53.602;11.418;2023-04-26T11:43:04;101095.59;;;11.65;100.00
3206;BME280;1615;53.602;11.418;2023-04-26T11:45:34;101025.97;;;11.51;100.00
3206;BME280;1615;53.602;11.418;2023-04-26T11:48:04;101094.38;;;12.18;100.00
3206;BME280;1615;53.602;11.418;2023-04-26T11:50:33;101073.66;;;12.25;100.00
3206;BME280;1615;53.602;11.418;2023-04-26T11:53:04;101088.34;;;12.34;97.83
3206;BME280;1615;53.602;11.418;2023-04-26T11:55:31;101069.94;;;12.53;97.08
3206;BME280;1615;53.602;11.418;2023-04-26T11:58:00;101063.28;;;12.73;99.29
3206;BME280;1615;53.602;11.418;2023-04-26T12:00:32;101076.03;;;13.01;92.68
3206;BME280;1615;53.602;11.418;2023-04-26T12:03:04;101072.44;;;13.19;85.38
3206;BME280;1615;53.602;11.418;2023-04-26T12:05:30;101073.38;;;13.28;82.55
3206;BME280;1615;53.602;11.418;2023-04-26T12:07:56;101070.81;;;13.18;80.05
3206;BME280;1615;53.602;11.418;2023-04-26T12:10:30;101068.47;;;13.25;78.41
3206;BME280;1615;53.602;11.418;2023-04-26T12:12:58;101012.84;;;12.96;79.04
3206;BME280;1615;53.602;11.418;2023-04-26T12:15:28;101084.69;;;13.40;85.26
3206;BME280;1615;53.602;11.418;2023-04-26T12:18:08;101087.31;;;13.18;93.38
3206;BME280;1615;53.602;11.418;2023-04-26T12:20:35;101090.75;;;13.10;93.95
3206;BME280;1615;53.602;11.418;2023-04-26T12:23:15;100978.16;;;12.31;91.99
3206;BME280;1615;53.602;11.418;2023-04-26T12:25:50;101088.09;;;13.05;92.87
3206;BME280;1615;53.602;11.418;2023-04-26T12:28:16;101092.03;;;13.31;91.03
3206;BME280;1615;53.602;11.418;2023-04-26T12:30:42;101092.22;;;13.34;89.82
3206;BME280;1615;53.602;11.418;2023-04-26T12:33:07;101094.19;;;13.34;89.81
3206;BME280;1615;53.602;11.418;2023-04-26T12:35:33;101096.31;;;13.37;88.72
3206;BME280;1615;53.602;11.418;2023-04-26T12:37:58;101094.78;;;13.31;92.17
3206;BME280;1615;53.602;11.418;2023-04-26T12:40:26;101100.09;;;13.41;91.16
3206;BME280;1615;53.602;11.418;2023-04-26T12:42:51;101111.25;;;13.63;96.99
3206;BME280;1615;53.602;11.418;2023-04-26T12:45:18;101108.00;;;13.61;91.58
3206;BME280;1615;53.602;11.418;2023-04-26T12:47:46;100995.63;;;12.72;86.01
3206;BME280;1615;53.602;11.418;2023-04-26T12:50:13;101102.84;;;13.41;85.03
3206;BME280;1615;53.602;11.418;2023-04-26T12:52:39;101107.09;;;13.20;79.50
3206;BME280;1615;53.602;11.418;2023-04-26T12:55:13;101105.47;;;13.19;76.10
3206;BME280;1615;53.602;11.418;2023-04-26T12:57:40;101054.78;;;12.88;78.02
3206;BME280;1615;53.602;11.418;2023-04-26T13:00:08;101109.75;;;13.25;75.55
3206;BME280;1615;53.602;11.418;2023-04-26T13:02:34;101103.66;;;13.28;73.70
3206;BME280;1615;53.602;11.418;2023-04-26T13:05:00;101039.81;;;13.26;73.72
3206;BME280;1615;53.602;11.418;2023-04-26T13:07:29;101091.66;;;13.78;75.93
3206;BME280;1615;53.602;11.418;2023-04-26T13:09:54;101095.34;;;13.73;71.20
3206;BME280;1615;53.602;11.418;2023-04-26T13:12:19;101102.59;;;13.83;70.15
3206;BME280;1615;53.602;11.418;2023-04-26T13:14:45;101118.66;;;13.49;82.64
3206;BME280;1615;53.602;11.418;2023-04-26T13:17:10;101117.28;;;13.19;95.01
3206;BME280;1615;53.602;11.418;2023-04-26T13:19:36;101100.59;;;12.97;99.78
3206;BME280;1615;53.602;11.418;2023-04-26T13:22:02;101079.59;;;12.51;99.53